createdAt,value
2018-07-28T00:01:00.213Z,73.28
2018-07-28T00:03:29.630Z,73.21
2018-07-28T00:05:59.453Z,73.61
2018-07-28T00:08:29.557Z,73.79
2018-07-28T00:10:59.313Z,73.69
2018-07-28T00:13:28.830Z,73.40
2018-07-28T00:15:58.617Z,73.36
2018-07-28T00:18:34.269Z,73.65
2018-07-28T00:21:16.643Z,74.04
2018-07-28T00:23:50.078Z,74.07
2018-07-28T00:26:21.472Z,74.12
2018-07-28T00:29:10.916Z,74.08
2018-07-28T00:31:45.871Z,73.45
2018-07-28T00:34:27.549Z,73.78
2018-07-28T00:36:59.366Z,73.86
2018-07-28T00:39:36.054Z,73.99
2018-07-28T00:42:08.923Z,74.18
2018-07-28T00:44:48.138Z,73.80
2018-07-28T00:47:27.302Z,73.98
2018-07-28T00:49:58.021Z,74.33
2018-07-28T00:52:28.845Z,73.94
2018-07-28T00:54:58.585Z,74.25
2018-07-28T00:57:29.401Z,73.85
2018-07-28T01:00:00.553Z,73.82
2018-07-28T01:02:33.214Z,73.86
2018-07-28T01:05:09.190Z,74.32
2018-07-28T01:07:44.693Z,74.54
2018-07-28T01:10:14.098Z,74.72
2018-07-28T01:12:44.028Z,74.91
2018-07-28T01:15:23.338Z,74.81
2018-07-28T01:17:53.080Z,74.96
2018-07-28T01:20:23.269Z,75.31
2018-07-28T01:22:53.026Z,75.18
2018-07-28T01:28:05.966Z,75.01
2018-07-28T01:30:35.867Z,75.02
2018-07-28T01:33:05.249Z,75.22
2018-07-28T01:35:34.805Z,74.93
2018-07-28T01:38:04.373Z,74.87
2018-07-28T01:40:34.165Z,74.71
2018-07-28T01:43:03.677Z,75.10
2018-07-28T01:45:33.569Z,75.06
2018-07-28T01:48:03.022Z,75.15
2018-07-28T01:50:32.856Z,75.47
2018-07-28T01:53:02.649Z,75.43
2018-07-28T01:55:32.391Z,75.09
2018-07-28T01:58:04.577Z,75.69
2018-07-28T02:00:34.454Z,75.67
2018-07-28T02:03:03.826Z,75.26
2018-07-28T02:05:33.437Z,75.11
2018-07-28T02:08:02.950Z,75.09
2018-07-28T02:10:32.535Z,75.05
2018-07-28T02:13:02.160Z,75.28
2018-07-28T02:15:32.091Z,75.24
2018-07-28T02:18:01.764Z,75.39
2018-07-28T02:20:31.179Z,75.44
2018-07-28T02:23:00.813Z,75.77
2018-07-28T02:25:30.308Z,75.49
2018-07-28T02:28:00.196Z,76.17
2018-07-28T02:30:29.942Z,76.45
2018-07-28T02:32:59.430Z,76.35
2018-07-28T02:35:28.822Z,76.26
2018-07-28T02:37:58.385Z,76.41
2018-07-28T02:40:27.875Z,76.36
2018-07-28T02:42:57.343Z,76.26
2018-07-28T02:45:27.014Z,76.29
2018-07-28T02:47:56.410Z,76.50
2018-07-28T02:50:26.182Z,76.26
2018-07-28T02:52:56.290Z,76.31
2018-07-28T02:55:25.760Z,76.45
2018-07-28T02:57:55.612Z,76.54
2018-07-28T03:00:25.268Z,76.79
2018-07-28T03:02:54.742Z,76.82
2018-07-28T03:05:24.347Z,76.30
2018-07-28T03:07:54.160Z,76.05
2018-07-28T03:10:23.688Z,76.44
2018-07-28T03:12:53.140Z,76.45
2018-07-28T03:15:30.514Z,76.21
2018-07-28T03:18:01.211Z,76.29
2018-07-28T03:20:30.925Z,75.97
2018-07-28T03:23:01.701Z,76.24
2018-07-28T03:25:31.560Z,76.25
2018-07-28T03:28:00.880Z,76.63
2018-07-28T03:30:31.006Z,76.80
2018-07-28T03:33:00.329Z,77.32
2018-07-28T03:35:36.734Z,77.07
2018-07-28T03:38:06.644Z,77.35
2018-07-28T03:40:36.379Z,77.36
2018-07-28T03:43:06.180Z,77.13
2018-07-28T03:45:35.653Z,77.09
2018-07-28T03:48:05.130Z,77.03
2018-07-28T03:50:35.637Z,77.23
2018-07-28T03:53:05.337Z,77.16
2018-07-28T03:55:34.837Z,77.21
2018-07-28T03:58:04.682Z,77.33
2018-07-28T04:00:34.262Z,77.22
2018-07-28T04:03:03.729Z,77.29
2018-07-28T04:05:34.318Z,77.33
2018-07-28T04:08:03.815Z,77.11
2018-07-28T04:10:33.826Z,76.94
2018-07-28T04:13:03.910Z,77.36
2018-07-28T04:15:33.657Z,76.98
2018-07-28T04:18:03.263Z,77.43
2018-07-28T04:20:33.029Z,77.39
2018-07-28T04:23:02.421Z,76.92
2018-07-28T04:25:32.169Z,76.54
2018-07-28T04:28:01.694Z,76.71
2018-07-28T04:30:31.450Z,77.46
2018-07-28T04:33:01.022Z,77.63
2018-07-28T04:35:30.929Z,77.53
2018-07-28T04:38:00.829Z,77.17
2018-07-28T04:40:30.658Z,76.69
2018-07-28T04:43:00.606Z,76.79
2018-07-28T04:45:30.063Z,76.89
2018-07-28T04:47:59.693Z,76.87
2018-07-28T04:50:29.777Z,76.85
2018-07-28T04:52:59.437Z,77.15
2018-07-28T04:55:29.018Z,76.92
2018-07-28T04:57:58.845Z,77.04
2018-07-28T05:00:28.459Z,77.02
2018-07-28T05:02:58.348Z,76.91
2018-07-28T05:05:28.071Z,76.71
2018-07-28T05:07:57.463Z,77.06
2018-07-28T05:10:27.377Z,76.07
2018-07-28T05:12:57.355Z,76.27
2018-07-28T05:15:27.106Z,75.95
2018-07-28T05:17:57.041Z,75.55
2018-07-28T05:20:26.665Z,75.03
2018-07-28T05:22:56.359Z,75.06
2018-07-28T05:25:26.266Z,74.58
2018-07-28T05:27:56.113Z,73.92
2018-07-28T05:30:25.682Z,74.91
2018-07-28T05:32:55.418Z,73.76
2018-07-28T05:35:24.889Z,73.04
2018-07-28T05:37:54.278Z,72.83
2018-07-28T05:40:23.773Z,73.29
2018-07-28T05:42:53.981Z,73.32
2018-07-28T05:45:23.738Z,73.71
2018-07-28T05:47:53.237Z,74.02
2018-07-28T05:50:23.045Z,73.12
2018-07-28T05:52:52.531Z,73.00
2018-07-28T05:55:22.010Z,73.40
2018-07-28T05:57:51.658Z,73.22
2018-07-28T06:00:21.465Z,72.38
2018-07-28T06:02:51.267Z,71.81
2018-07-28T06:05:21.361Z,73.13
2018-07-28T06:07:50.918Z,73.03
2018-07-28T06:10:20.776Z,72.86
2018-07-28T06:12:50.833Z,72.28
2018-07-28T06:15:20.699Z,71.88
2018-07-28T06:17:52.663Z,71.98
2018-07-28T06:20:22.139Z,71.07
2018-07-28T06:22:51.795Z,72.08
2018-07-28T06:25:21.716Z,71.93
2018-07-28T06:27:51.511Z,70.85
2018-07-28T06:30:21.092Z,71.19
2018-07-28T06:32:50.920Z,69.91
2018-07-28T06:35:20.556Z,69.79
2018-07-28T06:37:50.023Z,70.31
2018-07-28T06:40:20.195Z,70.79
2018-07-28T06:42:49.897Z,70.07
2018-07-28T06:45:19.457Z,69.51
2018-07-28T06:47:49.393Z,69.21
2018-07-28T06:50:19.002Z,69.61
2018-07-28T06:52:48.555Z,68.57
2018-07-28T06:55:18.529Z,68.58
2018-07-28T06:57:48.272Z,68.38
2018-07-28T07:00:17.847Z,68.70
2018-07-28T07:02:47.444Z,67.58
2018-07-28T07:05:16.886Z,67.38
2018-07-28T07:07:46.256Z,67.88
2018-07-28T07:10:16.014Z,66.77
2018-07-28T07:12:45.729Z,66.87
2018-07-28T07:15:15.283Z,66.82
2018-07-28T07:17:45.346Z,66.83
2018-07-28T07:20:14.885Z,65.84
2018-07-28T07:22:44.826Z,67.04
2018-07-28T07:25:15.088Z,66.22
2018-07-28T07:27:44.794Z,65.82
2018-07-28T07:30:14.280Z,66.50
2018-07-28T07:32:43.843Z,64.74
2018-07-28T07:35:13.387Z,64.50
2018-07-28T07:37:42.975Z,64.50
2018-07-28T07:40:12.619Z,64.83
2018-07-28T07:42:42.313Z,64.43
2018-07-28T07:45:11.830Z,64.86
2018-07-28T07:47:41.296Z,64.82
2018-07-28T07:50:11.098Z,63.72
2018-07-28T07:52:40.756Z,63.68
2018-07-28T07:55:10.541Z,65.24
2018-07-28T07:57:40.176Z,65.25
2018-07-28T08:00:10.443Z,64.38
2018-07-28T08:02:39.880Z,65.65
2018-07-28T08:05:09.791Z,64.73
2018-07-28T08:07:39.599Z,64.52
2018-07-28T08:10:09.363Z,63.33
2018-07-28T08:12:39.149Z,63.72
2018-07-28T08:15:09.238Z,63.31
2018-07-28T08:17:39.269Z,62.45
2018-07-28T08:20:08.887Z,60.87
2018-07-28T08:22:38.942Z,60.79
2018-07-28T08:25:08.847Z,61.35
2018-07-28T08:27:38.149Z,61.72
2018-07-28T08:30:08.388Z,59.96
2018-07-28T08:32:38.170Z,61.25
2018-07-28T08:35:08.572Z,60.04
2018-07-28T08:37:38.423Z,60.79
2018-07-28T08:40:07.983Z,61.85
2018-07-28T08:42:37.373Z,58.93
2018-07-28T08:45:07.491Z,59.06
2018-07-28T08:47:37.258Z,59.12
2018-07-28T08:50:06.989Z,59.61
2018-07-28T08:52:36.897Z,59.99
2018-07-28T08:55:06.305Z,58.13
2018-07-28T08:57:35.939Z,57.18
2018-07-28T09:00:06.513Z,57.91
2018-07-28T09:02:36.213Z,58.32
2018-07-28T09:05:06.370Z,58.36
2018-07-28T09:07:36.489Z,59.45
2018-07-28T09:10:06.087Z,56.92
2018-07-28T09:12:35.850Z,57.88
2018-07-28T09:15:06.204Z,55.69
2018-07-28T09:17:35.949Z,56.26
2018-07-28T09:20:06.151Z,57.62
2018-07-28T09:22:35.722Z,56.69
2018-07-28T09:25:05.558Z,57.21
2018-07-28T09:27:35.010Z,54.87
2018-07-28T09:30:05.624Z,54.25
2018-07-28T09:32:35.141Z,53.96
2018-07-28T09:35:04.934Z,55.35
2018-07-28T09:37:40.753Z,54.01
2018-07-28T09:40:10.131Z,55.48
2018-07-28T09:42:39.704Z,52.73
2018-07-28T09:45:09.558Z,53.78
2018-07-28T09:47:39.100Z,54.84
2018-07-28T09:50:08.445Z,54.60
2018-07-28T09:52:38.246Z,51.69
2018-07-28T09:55:08.105Z,54.85
2018-07-28T09:57:37.666Z,51.27
2018-07-28T10:00:07.778Z,52.64
2018-07-28T10:02:37.534Z,50.73
2018-07-28T10:05:07.062Z,51.12
2018-07-28T10:07:36.717Z,49.24
2018-07-28T10:10:06.323Z,48.24
2018-07-28T10:12:36.115Z,49.03
2018-07-28T10:15:06.245Z,49.12
2018-07-28T10:17:35.937Z,49.65
2018-07-28T10:20:05.784Z,48.36
2018-07-28T10:22:35.722Z,47.59
2018-07-28T10:25:05.178Z,47.28
2018-07-28T10:27:35.106Z,46.54
2018-07-28T10:30:06.092Z,47.88
2018-07-28T10:32:35.897Z,47.74
2018-07-28T10:35:06.173Z,46.77
2018-07-28T10:37:36.750Z,46.73
2018-07-28T10:40:06.901Z,46.78
2018-07-28T10:42:37.286Z,46.56
2018-07-28T10:45:06.767Z,47.72
2018-07-28T10:47:36.487Z,48.04
2018-07-28T10:50:06.205Z,48.55
2018-07-28T10:52:35.941Z,48.81
2018-07-28T10:55:05.410Z,48.31
2018-07-28T10:57:35.572Z,47.41
2018-07-28T11:00:06.770Z,47.65
2018-07-28T11:02:36.550Z,45.98
2018-07-28T11:05:06.554Z,46.13
2018-07-28T11:07:36.096Z,45.24
2018-07-28T11:10:07.129Z,44.95
2018-07-28T11:12:36.514Z,44.37
2018-07-28T11:15:07.702Z,45.16
2018-07-28T11:17:38.033Z,45.77
2018-07-28T11:20:09.921Z,44.15
2018-07-28T11:22:39.933Z,43.26
2018-07-28T11:25:09.745Z,44.29
2018-07-28T11:27:39.537Z,44.01
2018-07-28T11:30:09.956Z,44.85
2018-07-28T11:32:52.589Z,42.77
2018-07-28T11:35:33.331Z,42.08
2018-07-28T11:38:24.993Z,41.32
2018-07-28T11:41:05.856Z,41.42
2018-07-28T11:43:46.618Z,41.06
2018-07-28T11:46:17.779Z,41.00
2018-07-28T11:48:47.565Z,40.02
2018-07-28T11:51:16.872Z,40.27
2018-07-28T11:53:46.704Z,41.08
2018-07-28T11:56:16.167Z,41.52
2018-07-28T11:58:45.924Z,42.16
2018-07-28T12:01:15.440Z,39.54
2018-07-28T12:03:44.871Z,41.70
2018-07-28T12:06:14.691Z,39.69
2018-07-28T12:08:44.667Z,39.71
2018-07-28T12:11:14.274Z,38.77
2018-07-28T12:13:43.587Z,36.96
2018-07-28T12:16:13.211Z,37.26
2018-07-28T12:18:43.366Z,37.20
2018-07-28T12:21:12.931Z,36.91
2018-07-28T12:23:42.983Z,37.20
2018-07-28T12:26:13.763Z,38.03
2018-07-28T12:28:43.358Z,38.32
2018-07-28T12:31:16.099Z,39.60
2018-07-28T12:33:46.292Z,40.02
2018-07-28T12:36:16.028Z,39.65
2018-07-28T12:38:45.697Z,38.23
2018-07-28T12:41:15.250Z,36.99
2018-07-28T12:43:44.901Z,36.45
2018-07-28T12:46:14.844Z,36.55
2018-07-28T12:48:47.202Z,36.38
2018-07-28T12:51:17.263Z,36.56
2018-07-28T12:53:46.771Z,35.33
2018-07-28T12:56:16.127Z,37.82
2018-07-28T12:58:46.482Z,38.90
2018-07-28T13:01:16.154Z,36.91
2018-07-28T13:03:45.911Z,36.06
2018-07-28T13:06:18.036Z,34.46
2018-07-28T13:08:47.839Z,35.61
2018-07-28T13:11:17.891Z,35.13
2018-07-28T13:13:47.634Z,33.78
2018-07-28T13:16:17.429Z,33.07
2018-07-28T13:18:48.643Z,34.63
2018-07-28T13:21:18.555Z,35.86
2018-07-28T13:23:48.534Z,37.89
2018-07-28T13:26:19.010Z,37.86
2018-07-28T13:28:48.863Z,37.65
2018-07-28T13:31:18.400Z,35.66
2018-07-28T13:33:48.052Z,37.81
2018-07-28T13:36:18.810Z,35.06
2018-07-28T13:38:48.464Z,36.71
2018-07-28T13:41:18.191Z,36.52
2018-07-28T13:43:47.794Z,34.81
2018-07-28T13:46:18.651Z,33.96
2018-07-28T13:48:48.689Z,33.94
2018-07-28T13:51:19.935Z,35.01
2018-07-28T13:53:50.258Z,34.26
2018-07-28T13:56:22.478Z,34.53
2018-07-28T13:58:52.292Z,35.09
2018-07-28T14:01:21.928Z,36.29
2018-07-28T14:03:51.523Z,40.35
2018-07-28T14:06:21.007Z,44.10
2018-07-28T14:08:50.947Z,44.89
2018-07-28T14:11:20.509Z,43.28
2018-07-28T14:13:51.498Z,40.80
2018-07-28T14:16:21.197Z,41.13
2018-07-28T14:18:51.487Z,41.88
2018-07-28T14:21:24.741Z,41.05
2018-07-28T14:23:55.846Z,39.63
2018-07-28T14:26:27.168Z,41.31
2018-07-28T14:28:56.884Z,42.43
2018-07-28T14:31:26.682Z,42.94
2018-07-28T14:33:56.796Z,42.50
2018-07-28T14:36:26.557Z,42.60
2018-07-28T14:38:56.287Z,42.05
2018-07-28T14:41:26.509Z,42.31
2018-07-28T14:43:56.281Z,42.85
2018-07-28T14:46:28.160Z,42.25
2018-07-28T14:49:04.021Z,41.94
2018-07-28T14:51:35.830Z,42.38
2018-07-28T14:54:06.648Z,43.03
2018-07-28T14:59:15.867Z,40.53
2018-07-28T15:01:49.007Z,40.83
2018-07-28T15:04:23.096Z,40.47
2018-07-28T15:07:00.915Z,39.78
2018-07-28T15:09:35.911Z,40.34
2018-07-28T15:12:07.345Z,41.77
2018-07-28T15:14:38.322Z,42.08
2018-07-28T15:17:12.310Z,40.35
2018-07-28T15:19:50.541Z,39.02
2018-07-28T15:22:25.519Z,39.08
2018-07-28T15:25:03.354Z,40.86
2018-07-28T15:27:33.262Z,39.57
2018-07-28T15:30:09.541Z,38.76
2018-07-28T15:32:42.208Z,38.81
2018-07-28T15:35:17.252Z,38.61
2018-07-28T15:37:47.201Z,38.78
2018-07-28T15:40:16.651Z,40.03
2018-07-28T15:42:46.291Z,40.67
2018-07-28T15:45:15.946Z,42.10
2018-07-28T15:47:48.412Z,42.17
2018-07-28T15:50:18.567Z,41.25
2018-07-28T15:52:48.153Z,40.86
2018-07-28T15:55:17.784Z,41.12
2018-07-28T15:57:50.095Z,41.74
2018-07-28T16:00:24.304Z,41.34
2018-07-28T16:02:58.151Z,42.95
2018-07-28T16:05:27.946Z,43.32
2018-07-28T16:07:58.884Z,43.32
2018-07-28T16:10:28.198Z,44.30
2018-07-28T16:12:57.884Z,43.68
2018-07-28T16:15:32.013Z,44.88
2018-07-28T16:18:04.600Z,43.48
2018-07-28T16:20:36.288Z,43.65
2018-07-28T16:23:06.561Z,44.06
2018-07-28T16:25:36.714Z,44.32
2018-07-28T16:28:06.184Z,45.23
2018-07-28T16:30:35.916Z,45.78
2018-07-28T16:33:05.635Z,46.56
2018-07-28T16:35:37.380Z,46.75
2018-07-28T16:38:12.923Z,46.60
2018-07-28T16:40:43.437Z,46.71
2018-07-28T16:43:13.098Z,47.44
2018-07-28T16:45:42.582Z,47.82
2018-07-28T16:48:12.073Z,47.56
2018-07-28T16:50:41.994Z,48.66
2018-07-28T16:53:11.692Z,47.68
2018-07-28T16:55:41.140Z,48.58
2018-07-28T16:58:11.830Z,49.89
2018-07-28T17:00:43.189Z,49.47
2018-07-28T17:03:12.623Z,50.18
2018-07-28T17:05:42.107Z,49.88
2018-07-28T17:08:15.204Z,50.28
2018-07-28T17:10:44.900Z,50.28
2018-07-28T17:13:14.420Z,49.76
2018-07-28T17:15:43.931Z,50.10
2018-07-28T17:18:14.833Z,49.93
2018-07-28T17:20:44.445Z,49.80
2018-07-28T17:23:14.183Z,49.19
2018-07-28T17:25:44.285Z,49.34
2018-07-28T17:28:14.190Z,49.38
2018-07-28T17:30:43.859Z,50.54
2018-07-28T17:33:13.558Z,50.79
2018-07-28T17:35:44.645Z,51.81
2018-07-28T17:38:16.718Z,52.36
2018-07-28T17:40:47.582Z,53.69
2018-07-28T17:43:19.772Z,53.81
2018-07-28T17:45:49.667Z,55.37
2018-07-28T17:48:19.363Z,56.61
2018-07-28T17:50:49.203Z,56.98
2018-07-28T17:53:19.359Z,57.25
2018-07-28T17:55:49.006Z,57.47
2018-07-28T17:58:18.763Z,57.83
2018-07-28T18:00:49.029Z,57.61
2018-07-28T18:03:18.889Z,58.58
2018-07-28T18:05:48.439Z,60.97
2018-07-28T18:08:18.189Z,63.61
2018-07-28T18:10:48.219Z,68.18
2018-07-28T18:13:17.612Z,70.93
2018-07-28T18:15:47.572Z,72.25
2018-07-28T18:18:17.451Z,71.46
2018-07-28T18:20:47.047Z,73.60
2018-07-28T18:23:16.835Z,74.26
2018-07-28T18:25:46.594Z,73.18
2018-07-28T18:28:15.981Z,73.70
2018-07-28T18:30:45.639Z,75.34
2018-07-28T18:33:15.470Z,75.55
2018-07-28T18:35:45.391Z,73.88
2018-07-28T18:38:15.060Z,73.54
2018-07-28T18:40:44.610Z,73.54
2018-07-28T18:43:14.643Z,72.68
2018-07-28T18:45:44.242Z,73.25
2018-07-28T18:48:13.956Z,73.51
2018-07-28T18:50:43.544Z,73.60
2018-07-28T18:53:13.214Z,72.22
2018-07-28T18:55:42.688Z,73.83
2018-07-28T18:58:12.436Z,74.03
2018-07-28T19:00:42.423Z,75.16
2018-07-28T19:03:12.017Z,74.99
2018-07-28T19:05:41.947Z,74.87
2018-07-28T19:08:11.635Z,74.99
2018-07-28T19:10:41.042Z,75.37
2018-07-28T19:13:16.052Z,75.88
2018-07-28T19:15:45.491Z,75.45
2018-07-28T19:18:20.592Z,75.50
2018-07-28T19:20:50.221Z,75.09
2018-07-28T19:23:25.057Z,73.77
2018-07-28T19:25:54.541Z,73.32
2018-07-28T19:28:29.176Z,73.69
2018-07-28T19:30:59.038Z,74.22
2018-07-28T19:33:28.720Z,74.08
2018-07-28T19:36:04.075Z,74.97
2018-07-28T19:38:33.879Z,74.49
2018-07-28T19:41:03.395Z,73.97
2018-07-28T19:43:33.333Z,74.16
2018-07-28T19:46:02.986Z,74.50
2018-07-28T19:48:32.657Z,73.65
2018-07-28T19:51:02.114Z,74.19
2018-07-28T19:53:31.725Z,74.90
2018-07-28T19:56:01.099Z,74.50
2018-07-28T19:58:31.059Z,75.11
2018-07-28T20:01:00.573Z,75.39
2018-07-28T20:03:30.360Z,75.92
2018-07-28T20:06:00.355Z,76.43
2018-07-28T20:08:29.799Z,76.80
2018-07-28T20:10:59.734Z,77.08
2018-07-28T20:13:29.408Z,77.53
2018-07-28T20:15:58.832Z,77.93
2018-07-28T20:18:28.317Z,78.37
2018-07-28T20:20:58.156Z,78.04
2018-07-28T20:23:27.641Z,77.90
2018-07-28T20:26:00.046Z,78.25
2018-07-28T20:28:29.422Z,78.22
2018-07-28T20:30:59.250Z,77.78
2018-07-28T20:33:28.852Z,78.30
2018-07-28T20:35:58.459Z,78.40
2018-07-28T20:38:28.087Z,78.26
2018-07-28T20:40:58.110Z,77.94
2018-07-28T20:43:27.612Z,78.39
2018-07-28T20:45:57.200Z,78.27
2018-07-28T20:48:26.523Z,77.50
2018-07-28T20:50:56.150Z,77.49
2018-07-28T20:53:25.895Z,77.43
2018-07-28T21:13:18.262Z,76.04
2018-07-28T21:15:47.990Z,76.59
2018-07-28T21:18:17.755Z,77.25
2018-07-28T21:38:09.481Z,77.38
2018-07-28T21:40:39.174Z,77.38
2018-07-28T22:17:53.341Z,77.23
2018-07-28T22:37:45.502Z,76.61
2018-07-28T22:40:15.665Z,75.85
2018-07-28T23:00:08.337Z,76.04
2018-07-28T23:02:38.433Z,76.39
2018-07-28T23:05:08.759Z,76.23
2018-07-28T23:07:38.670Z,76.53
2018-07-28T23:10:08.580Z,76.28
2018-07-28T23:12:38.473Z,75.97
2018-07-28T23:15:08.268Z,76.12
2018-07-28T23:17:38.261Z,76.05
2018-07-28T23:20:08.178Z,76.68
2018-07-28T23:22:38.037Z,76.51
2018-07-28T23:25:08.563Z,76.37
2018-07-28T23:27:38.401Z,76.31
2018-07-28T23:30:10.585Z,76.26
2018-07-28T23:50:01.845Z,75.24
2018-07-28T23:52:31.596Z,75.34
2018-07-28T23:55:01.162Z,75.12
2018-07-28T23:57:30.503Z,74.92
